Time;durP1;ratioP1;P1;durP2;ratioP2;P2;SDS_P1;SDS_P2;PMS_P1;PMS_P2;Temp;Humidity;BMP_temperature;BMP_pressure;BME280_temperature;BME280_humidity;BME280_pressure;Samples;Min_cycle;Max_cycle;Signal;HPM_P1;HPM_P2
2022/03/07 00:01:16;;;;;;;9.75;6.40;;;;;;;;;;4968307;28;20198;-78
2022/03/07 00:03:43;;;;;;;8.07;6.43;;;;;;;;;;4967436;28;20201;-74
2022/03/07 00:06:10;;;;;;;7.93;6.03;;;;;;;;;;4969337;28;20209;-75
2022/03/07 00:08:38;;;;;;;8.32;6.65;;;;;;;;;;4968854;28;20224;-74
2022/03/07 00:11:05;;;;;;;6.35;5.75;;;;;;;;;;4968771;28;20289;-74
2022/03/07 00:13:32;;;;;;;8.35;6.22;;;;;;;;;;4965095;28;20661;-74
2022/03/07 00:15:59;;;;;;;8.52;6.70;;;;;;;;;;4969518;28;20228;-74
2022/03/07 00:18:27;;;;;;;8.52;6.25;;;;;;;;;;4961461;28;20201;-74
2022/03/07 00:20:55;;;;;;;7.50;6.47;;;;;;;;;;4972060;28;20201;-77
2022/03/07 00:23:22;;;;;;;9.68;6.95;;;;;;;;;;4968794;28;20212;-74
2022/03/07 00:25:49;;;;;;;8.55;6.55;;;;;;;;;;4975660;28;20201;-75
2022/03/07 00:28:16;;;;;;;8.30;6.10;;;;;;;;;;4971153;28;20212;-75
2022/03/07 00:30:43;;;;;;;7.60;6.80;;;;;;;;;;4983959;28;20588;-74
2022/03/07 00:33:10;;;;;;;9.82;7.20;;;;;;;;;;4972192;28;20209;-74
2022/03/07 00:35:39;;;;;;;7.60;6.68;;;;;;;;;;4971711;28;20224;-74
2022/03/07 00:38:06;;;;;;;7.80;6.97;;;;;;;;;;4967915;28;20212;-75
2022/03/07 00:40:33;;;;;;;10.40;7.30;;;;;;;;;;4973304;28;20200;-75
2022/03/07 00:43:00;;;;;;;8.77;7.20;;;;;;;;;;4991409;28;20193;-74
2022/03/07 00:45:27;;;;;;;8.10;6.65;;;;;;;;;;4976561;28;20208;-75
2022/03/07 00:47:54;;;;;;;7.15;6.45;;;;;;;;;;4973061;28;20194;-74
2022/03/07 00:50:21;;;;;;;8.85;7.15;;;;;;;;;;4976975;28;20665;-74
2022/03/07 00:52:50;;;;;;;7.05;6.35;;;;;;;;;;4971717;28;20220;-75
2022/03/07 00:55:17;;;;;;;8.80;7.00;;;;;;;;;;4979983;28;20457;-74
2022/03/07 00:57:44;;;;;;;8.13;7.30;;;;;;;;;;4977045;28;20210;-75
2022/03/07 01:00:11;;;;;;;9.00;6.20;;;;;;;;;;4976251;28;20204;-74
2022/03/07 01:02:39;;;;;;;6.88;6.18;;;;;;;;;;4974210;28;20202;-75
2022/03/07 01:05:07;;;;;;;18.98;7.45;;;;;;;;;;4975447;28;20237;-74
2022/03/07 01:07:34;;;;;;;9.13;6.95;;;;;;;;;;4971821;28;20686;-74
2022/03/07 01:10:02;;;;;;;7.85;6.53;;;;;;;;;;4973779;28;20656;-74
2022/03/07 01:12:29;;;;;;;8.63;6.95;;;;;;;;;;4972630;28;20568;-74
2022/03/07 01:14:56;;;;;;;9.35;7.53;;;;;;;;;;4980411;28;20193;-75
2022/03/07 01:17:23;;;;;;;7.82;6.90;;;;;;;;;;4977270;28;20205;-74
2022/03/07 01:19:50;;;;;;;6.70;6.00;;;;;;;;;;4977389;28;20564;-74
2022/03/07 01:22:17;;;;;;;8.43;6.35;;;;;;;;;;4979184;28;20208;-74
2022/03/07 01:24:44;;;;;;;7.95;6.47;;;;;;;;;;4970316;28;20221;-75
2022/03/07 01:27:12;;;;;;;9.13;7.35;;;;;;;;;;4968114;28;20765;-74
2022/03/07 01:29:40;;;;;;;8.00;7.20;;;;;;;;;;4972505;28;20201;-74
2022/03/07 01:32:07;;;;;;;11.82;6.65;;;;;;;;;;4965566;28;20209;-74
2022/03/07 01:34:34;;;;;;;7.90;6.38;;;;;;;;;;4969682;28;20202;-76
2022/03/07 01:37:01;;;;;;;8.30;6.72;;;;;;;;;;4973463;28;20232;-74
2022/03/07 01:39:28;;;;;;;9.55;6.60;;;;;;;;;;4970850;28;20206;-75
2022/03/07 01:41:55;;;;;;;10.27;7.10;;;;;;;;;;4972952;28;20194;-74
2022/03/07 01:44:25;;;;;;;10.27;7.00;;;;;;;;;;4959458;28;20221;-75
2022/03/07 01:46:52;;;;;;;9.60;7.07;;;;;;;;;;4975277;28;20631;-75
2022/03/07 01:49:20;;;;;;;7.97;6.53;;;;;;;;;;4978467;28;20197;-74
2022/03/07 01:51:47;;;;;;;9.23;7.45;;;;;;;;;;4976278;28;20220;-75
2022/03/07 01:54:16;;;;;;;8.95;6.32;;;;;;;;;;4968433;28;20214;-75
2022/03/07 01:56:45;;;;;;;8.30;6.75;;;;;;;;;;4971432;28;20225;-74
2022/03/07 01:59:12;;;;;;;8.70;6.70;;;;;;;;;;4975957;28;20197;-75
2022/03/07 02:01:41;;;;;;;10.63;7.35;;;;;;;;;;4980866;28;20674;-75
2022/03/07 02:04:08;;;;;;;9.20;7.05;;;;;;;;;;4992178;28;20189;-75
2022/03/07 02:06:35;;;;;;;9.75;7.28;;;;;;;;;;4970404;28;20205;-74
2022/03/07 02:09:02;;;;;;;12.77;7.80;;;;;;;;;;4971015;28;20691;-75
2022/03/07 02:11:29;;;;;;;12.57;7.32;;;;;;;;;;4972643;28;20204;-76
2022/03/07 02:13:56;;;;;;;11.07;8.20;;;;;;;;;;4973924;28;20247;-73
2022/03/07 02:16:23;;;;;;;9.07;7.03;;;;;;;;;;4969274;28;20217;-75
2022/03/07 02:18:52;;;;;;;8.13;7.25;;;;;;;;;;4971293;28;20213;-74
2022/03/07 02:21:20;;;;;;;6.82;6.10;;;;;;;;;;4972801;28;20189;-75
2022/03/07 02:23:48;;;;;;;9.00;6.90;;;;;;;;;;4970542;28;20218;-74
2022/03/07 02:26:16;;;;;;;8.93;7.57;;;;;;;;;;4975657;28;20197;-75
2022/03/07 02:28:43;;;;;;;7.65;6.35;;;;;;;;;;4973681;28;20525;-75
2022/03/07 02:31:11;;;;;;;7.43;6.70;;;;;;;;;;4966381;28;20248;-74
2022/03/07 02:33:38;;;;;;;9.15;6.75;;;;;;;;;;4972403;28;20197;-74
2022/03/07 02:36:06;;;;;;;8.18;6.57;;;;;;;;;;4972041;28;20233;-76
2022/03/07 02:38:33;;;;;;;9.07;7.35;;;;;;;;;;4982553;28;20592;-75
2022/03/07 02:41:01;;;;;;;8.38;6.47;;;;;;;;;;4969611;28;20205;-74
2022/03/07 02:43:28;;;;;;;7.78;7.00;;;;;;;;;;4977879;28;20193;-73
2022/03/07 02:45:58;;;;;;;9.85;6.75;;;;;;;;;;4988288;28;20567;-74
2022/03/07 02:48:25;;;;;;;7.65;6.95;;;;;;;;;;4973679;28;20201;-74
2022/03/07 02:50:52;;;;;;;10.38;7.75;;;;;;;;;;4973655;28;20194;-74
2022/03/07 02:53:19;;;;;;;8.25;6.05;;;;;;;;;;4971605;28;20675;-74
2022/03/07 02:55:46;;;;;;;7.20;6.50;;;;;;;;;;4966903;28;20221;-75
2022/03/07 02:58:15;;;;;;;8.50;7.55;;;;;;;;;;4972885;28;20223;-75
2022/03/07 03:00:42;;;;;;;8.23;6.80;;;;;;;;;;4970043;28;20691;-75
2022/03/07 03:03:09;;;;;;;7.80;7.00;;;;;;;;;;4971194;28;20201;-74
2022/03/07 03:05:36;;;;;;;7.88;6.32;;;;;;;;;;4975508;28;20193;-75
2022/03/07 03:08:03;;;;;;;7.25;6.55;;;;;;;;;;4977174;28;20194;-74
2022/03/07 03:10:30;;;;;;;7.75;6.75;;;;;;;;;;4974528;28;20201;-75
2022/03/07 03:12:57;;;;;;;8.38;7.30;;;;;;;;;;4988490;28;20565;-75
2022/03/07 03:15:25;;;;;;;9.20;7.20;;;;;;;;;;4977751;28;20193;-74
2022/03/07 03:17:52;;;;;;;7.45;6.75;;;;;;;;;;4973394;28;20194;-75
2022/03/07 03:20:19;;;;;;;9.27;6.97;;;;;;;;;;4971130;28;20679;-74
2022/03/07 03:22:47;;;;;;;8.15;6.70;;;;;;;;;;4971008;28;20648;-75
2022/03/07 03:25:15;;;;;;;7.18;6.10;;;;;;;;;;4967790;28;20226;-74
2022/03/07 03:27:42;;;;;;;9.02;7.07;;;;;;;;;;4971662;28;20600;-75
2022/03/07 03:30:10;;;;;;;7.50;6.70;;;;;;;;;;4966444;28;20565;-74
2022/03/07 03:32:39;;;;;;;7.85;6.80;;;;;;;;;;4964592;28;20201;-74
2022/03/07 03:35:06;;;;;;;9.82;7.25;;;;;;;;;;4966306;28;20274;-74
2022/03/07 03:37:33;;;;;;;7.78;6.93;;;;;;;;;;4970120;28;20217;-75
2022/03/07 03:40:00;;;;;;;8.88;7.13;;;;;;;;;;4967762;28;20527;-76
2022/03/07 03:42:27;;;;;;;7.55;6.85;;;;;;;;;;4972687;28;20611;-74
2022/03/07 03:44:54;;;;;;;7.93;6.35;;;;;;;;;;4968461;28;20249;-74
2022/03/07 03:47:21;;;;;;;8.35;6.78;;;;;;;;;;4971359;28;20204;-74
2022/03/07 03:49:50;;;;;;;9.38;7.47;;;;;;;;;;4970838;28;20197;-74
2022/03/07 03:52:17;;;;;;;7.88;6.57;;;;;;;;;;4974308;28;20220;-75
2022/03/07 03:54:44;;;;;;;7.53;6.75;;;;;;;;;;4966133;28;20239;-75
2022/03/07 03:57:11;;;;;;;9.90;6.78;;;;;;;;;;4969970;28;20213;-75
2022/03/07 03:59:38;;;;;;;9.10;7.10;;;;;;;;;;4974017;28;20202;-74
2022/03/07 04:02:05;;;;;;;7.28;6.55;;;;;;;;;;4970963;28;20198;-75
2022/03/07 04:04:32;;;;;;;6.88;6.18;;;;;;;;;;4971731;28;20193;-75
2022/03/07 04:07:01;;;;;;;6.72;6.03;;;;;;;;;;4975124;28;20292;-75
2022/03/07 04:09:28;;;;;;;8.15;6.05;;;;;;;;;;4972427;28;20197;-75
2022/03/07 04:11:55;;;;;;;7.93;6.63;;;;;;;;;;4967924;28;20190;-75
2022/03/07 04:14:22;;;;;;;8.15;6.40;;;;;;;;;;4975640;28;20205;-74
2022/03/07 04:16:49;;;;;;;7.22;6.57;;;;;;;;;;4978392;28;20252;-74
2022/03/07 04:19:16;;;;;;;8.32;6.85;;;;;;;;;;4973861;28;20201;-74
2022/03/07 04:21:44;;;;;;;8.35;7.40;;;;;;;;;;4976498;28;20604;-74
2022/03/07 04:24:14;;;;;;;8.70;6.70;;;;;;;;;;4969206;28;20272;-73
2022/03/07 04:26:41;;;;;;;7.95;6.60;;;;;;;;;;4977409;28;20197;-73
2022/03/07 04:29:09;;;;;;;8.40;7.05;;;;;;;;;;4972711;28;20225;-76
2022/03/07 04:31:37;;;;;;;6.78;6.10;;;;;;;;;;4971998;28;20290;-75
2022/03/07 04:34:05;;;;;;;6.60;5.93;;;;;;;;;;4970849;28;20205;-75
2022/03/07 04:36:32;;;;;;;9.25;6.25;;;;;;;;;;4976404;28;20722;-75
2022/03/07 04:38:59;;;;;;;8.45;6.63;;;;;;;;;;4977178;28;20666;-75
2022/03/07 04:41:27;;;;;;;9.38;6.47;;;;;;;;;;4979171;28;20197;-75
2022/03/07 04:43:55;;;;;;;7.63;6.70;;;;;;;;;;4972046;28;20221;-75
2022/03/07 04:46:22;;;;;;;9.70;7.10;;;;;;;;;;4975580;28;20212;-74
2022/03/07 04:48:49;;;;;;;9.60;7.10;;;;;;;;;;4974679;28;20194;-74
2022/03/07 04:51:16;;;;;;;6.78;6.07;;;;;;;;;;4972183;28;20201;-75
2022/03/07 04:53:43;;;;;;;7.97;6.18;;;;;;;;;;4972609;28;20679;-75
2022/03/07 04:56:11;;;;;;;7.43;5.70;;;;;;;;;;4969209;28;20228;-75
2022/03/07 04:58:40;;;;;;;7.32;6.20;;;;;;;;;;4978533;28;20208;-75
2022/03/07 05:01:07;;;;;;;6.47;5.88;;;;;;;;;;4977405;28;20189;-75
2022/03/07 05:03:34;;;;;;;9.55;7.03;;;;;;;;;;4983379;28;20283;-75
2022/03/07 05:06:01;;;;;;;7.45;5.68;;;;;;;;;;4973584;28;20190;-76
2022/03/07 05:08:28;;;;;;;6.35;5.75;;;;;;;;;;4974180;28;20198;-75
2022/03/07 05:10:56;;;;;;;7.15;5.43;;;;;;;;;;4969625;28;20286;-73
2022/03/07 05:13:23;;;;;;;7.57;6.63;;;;;;;;;;4974783;28;20205;-74
2022/03/07 05:15:51;;;;;;;7.25;5.85;;;;;;;;;;4985693;28;20219;-74
2022/03/07 05:18:18;;;;;;;7.75;6.20;;;;;;;;;;4972253;28;20225;-75
2022/03/07 05:20:45;;;;;;;7.07;6.40;;;;;;;;;;4976055;28;20220;-75
2022/03/07 05:23:12;;;;;;;8.15;6.90;;;;;;;;;;4982140;28;20197;-75
2022/03/07 05:25:39;;;;;;;6.72;5.90;;;;;;;;;;4965113;28;20201;-75
2022/03/07 05:28:07;;;;;;;5.70;5.20;;;;;;;;;;4973955;28;20198;-75
2022/03/07 05:30:34;;;;;;;7.82;5.82;;;;;;;;;;4972069;28;20198;-75
2022/03/07 05:33:02;;;;;;;7.57;6.28;;;;;;;;;;4973508;28;20204;-76
2022/03/07 05:35:29;;;;;;;8.68;6.53;;;;;;;;;;4974867;28;20202;-75
2022/03/07 05:37:56;;;;;;;6.53;5.80;;;;;;;;;;4970245;28;20379;-75
2022/03/07 05:40:23;;;;;;;6.85;5.88;;;;;;;;;;4974004;28;20202;-73
2022/03/07 05:42:50;;;;;;;6.47;5.40;;;;;;;;;;4976128;28;20197;-74
2022/03/07 05:45:18;;;;;;;6.25;5.65;;;;;;;;;;4982174;28;20209;-74
2022/03/07 05:47:45;;;;;;;6.85;6.15;;;;;;;;;;4971777;28;20197;-75
2022/03/07 05:50:14;;;;;;;6.75;5.35;;;;;;;;;;4975367;28;20204;-74
2022/03/07 05:52:41;;;;;;;9.68;6.80;;;;;;;;;;4974087;28;20239;-74
2022/03/07 05:55:08;;;;;;;8.05;5.45;;;;;;;;;;4970321;28;20205;-74
2022/03/07 05:57:36;;;;;;;8.57;6.22;;;;;;;;;;4981010;28;20209;-74
2022/03/07 06:00:03;;;;;;;7.55;6.03;;;;;;;;;;4978509;28;20613;-75
2022/03/07 06:02:31;;;;;;;16.27;5.90;;;;;;;;;;4974799;28;20295;-74
2022/03/07 06:04:58;;;;;;;6.70;6.00;;;;;;;;;;4983208;28;20205;-74
2022/03/07 06:07:26;;;;;;;7.38;6.20;;;;;;;;;;4971934;28;20228;-74
2022/03/07 06:09:53;;;;;;;6.70;5.60;;;;;;;;;;4971529;28;20571;-74
2022/03/07 06:12:21;;;;;;;8.77;5.75;;;;;;;;;;4979200;28;20192;-74
2022/03/07 06:14:48;;;;;;;7.00;5.57;;;;;;;;;;4978074;28;20565;-75
2022/03/07 06:17:15;;;;;;;6.97;5.82;;;;;;;;;;4968504;28;20222;-75
2022/03/07 06:19:42;;;;;;;10.07;6.22;;;;;;;;;;4971948;28;20257;-74
2022/03/07 06:22:09;;;;;;;6.15;5.55;;;;;;;;;;4973359;28;20201;-75
2022/03/07 06:24:38;;;;;;;6.88;6.22;;;;;;;;;;4963431;28;20226;-73
2022/03/07 06:27:05;;;;;;;8.85;5.88;;;;;;;;;;4967443;28;20201;-73
2022/03/07 06:29:32;;;;;;;7.07;6.22;;;;;;;;;;4969481;28;20208;-75
2022/03/07 06:31:59;;;;;;;8.57;7.30;;;;;;;;;;4968951;28;20209;-74
2022/03/07 06:34:26;;;;;;;9.20;6.55;;;;;;;;;;4970726;28;20197;-75
2022/03/07 06:36:53;;;;;;;7.15;6.05;;;;;;;;;;4971378;28;20240;-74
2022/03/07 06:39:25;;;;;;;6.50;5.90;;;;;;;;;;4965389;28;20284;-75
2022/03/07 06:41:53;;;;;;;10.27;6.28;;;;;;;;;;4971932;28;20200;-75
2022/03/07 06:44:20;;;;;;;8.57;7.13;;;;;;;;;;4960265;28;20205;-75
2022/03/07 06:46:47;;;;;;;7.35;6.68;;;;;;;;;;4968043;28;20202;-74
2022/03/07 06:49:14;;;;;;;15.80;6.50;;;;;;;;;;4971557;28;20228;-74
2022/03/07 06:51:41;;;;;;;8.95;5.95;;;;;;;;;;4969129;28;20209;-74
2022/03/07 06:54:08;;;;;;;8.95;7.32;;;;;;;;;;4967001;28;20665;-74
2022/03/07 06:56:36;;;;;;;7.22;6.53;;;;;;;;;;4970771;28;20559;-74
2022/03/07 06:59:05;;;;;;;8.70;6.13;;;;;;;;;;4961853;28;20225;-75
2022/03/07 07:01:32;;;;;;;8.13;7.30;;;;;;;;;;4961955;28;20198;-74
2022/03/07 07:03:59;;;;;;;7.07;6.25;;;;;;;;;;4963077;28;20565;-75
2022/03/07 07:06:26;;;;;;;7.85;6.70;;;;;;;;;;4970156;28;20569;-75
2022/03/07 07:08:53;;;;;;;7.80;6.97;;;;;;;;;;4969831;28;20543;-75
2022/03/07 07:11:20;;;;;;;7.75;6.63;;;;;;;;;;4972077;28;20197;-76
2022/03/07 07:13:47;;;;;;;11.18;6.40;;;;;;;;;;4966004;28;20198;-75
2022/03/07 07:16:16;;;;;;;10.35;6.90;;;;;;;;;;4970456;28;20197;-75
2022/03/07 07:18:43;;;;;;;7.40;6.53;;;;;;;;;;4968709;28;20312;-74
2022/03/07 07:21:10;;;;;;;9.98;7.18;;;;;;;;;;4975820;28;20190;-74
2022/03/07 07:23:37;;;;;;;8.10;6.40;;;;;;;;;;4970923;28;20217;-76
2022/03/07 07:26:04;;;;;;;10.45;6.78;;;;;;;;;;4968615;28;20393;-75
2022/03/07 07:28:31;;;;;;;8.95;5.85;;;;;;;;;;4969987;28;20665;-75
2022/03/07 07:30:59;;;;;;;7.63;6.15;;;;;;;;;;4962902;28;20200;-75
2022/03/07 07:33:27;;;;;;;6.10;5.60;;;;;;;;;;4970808;28;20201;-75
2022/03/07 07:35:54;;;;;;;7.38;6.18;;;;;;;;;;4968972;28;20193;-75
2022/03/07 07:38:22;;;;;;;6.28;5.68;;;;;;;;;;4965268;28;20221;-75
2022/03/07 07:40:49;;;;;;;6.97;5.57;;;;;;;;;;4969241;28;20197;-75
2022/03/07 07:43:17;;;;;;;6.85;5.97;;;;;;;;;;4970469;28;20201;-76
2022/03/07 07:45:44;;;;;;;7.00;5.43;;;;;;;;;;4972594;28;20193;-75
2022/03/07 07:48:11;;;;;;;8.23;5.93;;;;;;;;;;4970723;28;20198;-75
2022/03/07 07:50:39;;;;;;;6.85;5.95;;;;;;;;;;4968792;28;20202;-76
2022/03/07 07:53:07;;;;;;;7.43;5.50;;;;;;;;;;4970512;28;20260;-75
2022/03/07 07:55:34;;;;;;;7.03;6.32;;;;;;;;;;4972374;28;20200;-74
2022/03/07 07:58:01;;;;;;;6.82;6.18;;;;;;;;;;4971361;28;20213;-74
2022/03/07 08:00:28;;;;;;;6.38;4.95;;;;;;;;;;4975488;28;20203;-75
2022/03/07 08:02:55;;;;;;;9.68;5.55;;;;;;;;;;4971106;28;20201;-75
2022/03/07 08:05:22;;;;;;;7.45;5.00;;;;;;;;;;4968458;28;20198;-75
2022/03/07 08:07:51;;;;;;;6.05;5.07;;;;;;;;;;4963361;28;20206;-76
2022/03/07 08:10:19;;;;;;;7.15;5.00;;;;;;;;;;4967084;28;20198;-75
2022/03/07 08:12:46;;;;;;;5.97;5.18;;;;;;;;;;4971788;28;20193;-75
2022/03/07 08:15:14;;;;;;;5.57;4.63;;;;;;;;;;4969780;28;20213;-80
2022/03/07 08:17:44;;;;;;;6.50;4.95;;;;;;;;;;4979912;28;20222;-80
2022/03/07 08:20:11;;;;;;;6.63;4.97;;;;;;;;;;4972133;28;20190;-79
2022/03/07 08:22:38;;;;;;;5.03;4.63;;;;;;;;;;4968174;28;20244;-80
2022/03/07 08:25:07;;;;;;;4.78;4.38;;;;;;;;;;4962388;28;20229;-77
2022/03/07 08:27:35;;;;;;;7.68;5.32;;;;;;;;;;4968175;28;20204;-77
2022/03/07 08:30:02;;;;;;;5.03;4.53;;;;;;;;;;4971534;28;20197;-78
2022/03/07 08:32:29;;;;;;;6.85;5.20;;;;;;;;;;4964401;28;20223;-79
2022/03/07 08:34:57;;;;;;;4.72;3.72;;;;;;;;;;4968002;28;20205;-75
2022/03/07 08:37:24;;;;;;;11.25;4.95;;;;;;;;;;4971125;28;20445;-80
2022/03/07 08:39:51;;;;;;;5.55;4.20;;;;;;;;;;4968782;28;20201;-80
2022/03/07 08:42:20;;;;;;;5.03;4.30;;;;;;;;;;4972039;28;20194;-79
2022/03/07 08:44:47;;;;;;;8.15;4.28;;;;;;;;;;4972376;28;20225;-80
2022/03/07 08:47:14;;;;;;;4.53;4.03;;;;;;;;;;4970576;28;20208;-72
2022/03/07 08:49:41;;;;;;;4.38;3.97;;;;;;;;;;4970226;28;20240;-72
2022/03/07 08:52:08;;;;;;;4.47;4.00;;;;;;;;;;4971254;28;20202;-71
2022/03/07 08:54:35;;;;;;;4.18;3.45;;;;;;;;;;4966579;28;20209;-73
2022/03/07 08:57:03;;;;;;;5.65;3.58;;;;;;;;;;4971067;28;20201;-73
2022/03/07 08:59:31;;;;;;;3.55;3.25;;;;;;;;;;4972724;28;20197;-73
2022/03/07 09:01:59;;;;;;;3.60;3.25;;;;;;;;;;4972726;28;20213;-72
2022/03/07 09:04:26;;;;;;;4.13;3.63;;;;;;;;;;4974209;28;20193;-72
2022/03/07 09:06:53;;;;;;;4.28;3.28;;;;;;;;;;4969981;28;20592;-73
2022/03/07 09:09:20;;;;;;;4.32;3.75;;;;;;;;;;4974062;28;20205;-73
2022/03/07 09:11:48;;;;;;;10.00;4.25;;;;;;;;;;4971220;28;20198;-72
2022/03/07 09:14:15;;;;;;;4.30;3.50;;;;;;;;;;4975296;28;20204;-73
2022/03/07 09:16:44;;;;;;;5.03;3.47;;;;;;;;;;4973548;28;20568;-72
2022/03/07 09:19:11;;;;;;;3.33;2.95;;;;;;;;;;4967169;28;20580;-73
2022/03/07 09:21:38;;;;;;;5.75;3.85;;;;;;;;;;4974787;28;20677;-72
2022/03/07 09:24:06;;;;;;;8.05;4.13;;;;;;;;;;4971825;28;20857;-72
2022/03/07 09:26:33;;;;;;;4.72;3.85;;;;;;;;;;4969767;28;20197;-74
2022/03/07 09:29:00;;;;;;;5.55;3.95;;;;;;;;;;4974147;28;20197;-73
2022/03/07 09:31:27;;;;;;;5.05;3.55;;;;;;;;;;4974815;28;20612;-73
2022/03/07 09:33:56;;;;;;;4.95;3.15;;;;;;;;;;4969624;28;20194;-73
2022/03/07 09:36:23;;;;;;;4.40;3.22;;;;;;;;;;4973039;28;20252;-73
2022/03/07 09:38:51;;;;;;;4.18;2.80;;;;;;;;;;4971554;28;20229;-72
2022/03/07 09:41:18;;;;;;;6.38;3.83;;;;;;;;;;4978970;28;20225;-72
2022/03/07 09:43:46;;;;;;;3.97;2.65;;;;;;;;;;4962106;28;20198;-73
2022/03/07 09:46:14;;;;;;;2.50;2.30;;;;;;;;;;4971136;28;20249;-74
2022/03/07 09:48:41;;;;;;;4.40;2.42;;;;;;;;;;4973800;28;20488;-72
2022/03/07 09:51:10;;;;;;;3.03;2.53;;;;;;;;;;4974053;28;20194;-73
2022/03/07 09:53:37;;;;;;;8.90;3.40;;;;;;;;;;4973396;28;20204;-72
2022/03/07 09:56:05;;;;;;;3.47;2.60;;;;;;;;;;4972349;28;20680;-72
2022/03/07 09:58:32;;;;;;;4.43;2.65;;;;;;;;;;4973470;28;20244;-72
2022/03/07 10:01:07;;;;;;;3.78;2.72;;;;;;;;;;4975248;28;20202;-72
2022/03/07 10:03:34;;;;;;;3.70;3.10;;;;;;;;;;4972933;28;20203;-72
2022/03/07 10:06:01;;;;;;;3.90;2.85;;;;;;;;;;4978070;28;20581;-72
2022/03/07 10:08:30;;;;;;;8.18;2.45;;;;;;;;;;4971960;28;20209;-73
2022/03/07 10:10:57;;;;;;;4.47;3.10;;;;;;;;;;4973381;28;20201;-72
2022/03/07 10:13:25;;;;;;;3.90;2.92;;;;;;;;;;4972780;28;20209;-72
2022/03/07 10:15:56;;;;;;;3.00;2.10;;;;;;;;;;4969888;28;20251;-72
2022/03/07 10:18:24;;;;;;;6.60;2.47;;;;;;;;;;4971342;28;20248;-73
2022/03/07 10:20:51;;;;;;;9.07;2.42;;;;;;;;;;4972586;28;20198;-76
2022/03/07 10:23:18;;;;;;;3.30;2.95;;;;;;;;;;4970536;28;20735;-73
2022/03/07 10:25:47;;;;;;;3.30;2.55;;;;;;;;;;4960054;28;20573;-73
2022/03/07 10:28:14;;;;;;;1.75;1.65;;;;;;;;;;4969374;28;20201;-72
2022/03/07 10:30:42;;;;;;;2.38;2.17;;;;;;;;;;4963145;28;20601;-73
2022/03/07 10:33:10;;;;;;;3.10;2.05;;;;;;;;;;4969621;28;20197;-73
2022/03/07 10:35:38;;;;;;;2.25;2.05;;;;;;;;;;4974241;28;20196;-72
2022/03/07 10:38:06;;;;;;;3.00;2.70;;;;;;;;;;4971772;28;20727;-74
2022/03/07 10:40:34;;;;;;;2.85;2.60;;;;;;;;;;4962308;28;20198;-72
2022/03/07 10:43:04;;;;;;;3.35;2.10;;;;;;;;;;4967918;28;20197;-74
2022/03/07 10:45:31;;;;;;;2.60;2.40;;;;;;;;;;4958621;28;20197;-73
2022/03/07 10:47:59;;;;;;;3.08;2.55;;;;;;;;;;4969503;28;20684;-74
2022/03/07 10:50:28;;;;;;;4.38;2.58;;;;;;;;;;4964342;28;20213;-74
2022/03/07 10:53:00;;;;;;;2.28;1.52;;;;;;;;;;4950712;28;20212;-71
2022/03/07 10:55:28;;;;;;;3.65;2.20;;;;;;;;;;4966001;28;20701;-72
2022/03/07 10:58:04;;;;;;;2.35;2.03;;;;;;;;;;4967796;28;20256;-72
2022/03/07 11:00:33;;;;;;;2.60;2.38;;;;;;;;;;4966484;28;20727;-74
2022/03/07 11:03:01;;;;;;;2.45;2.20;;;;;;;;;;4953087;28;20821;-75
2022/03/07 11:05:28;;;;;;;2.15;2.05;;;;;;;;;;4962568;28;20221;-71
2022/03/07 11:07:55;;;;;;;2.85;2.17;;;;;;;;;;4965473;28;20217;-73
2022/03/07 11:10:22;;;;;;;2.08;1.90;;;;;;;;;;4968661;28;20652;-72
2022/03/07 11:12:49;;;;;;;2.05;1.70;;;;;;;;;;4962779;28;20205;-72
2022/03/07 11:15:18;;;;;;;2.90;2.70;;;;;;;;;;4967673;28;20205;-75
2022/03/07 11:17:48;;;;;;;3.63;2.25;;;;;;;;;;4963079;28;20198;-74
2022/03/07 11:20:16;;;;;;;2.88;2.35;;;;;;;;;;4954630;28;20735;-73
2022/03/07 11:22:43;;;;;;;2.65;2.22;;;;;;;;;;4962577;28;20201;-74
2022/03/07 11:25:15;;;;;;;3.58;2.17;;;;;;;;;;4967269;28;20738;-75
2022/03/07 11:27:42;;;;;;;3.70;2.35;;;;;;;;;;4968241;28;20205;-73
2022/03/07 11:30:19;;;;;;;4.32;2.58;;;;;;;;;;4968514;28;20201;-73
2022/03/07 11:32:50;;;;;;;6.05;2.47;;;;;;;;;;4963934;28;20198;-73
2022/03/07 11:35:17;;;;;;;3.85;2.58;;;;;;;;;;4969420;28;20205;-72
2022/03/07 11:37:45;;;;;;;3.30;2.50;;;;;;;;;;4965865;28;20201;-72
2022/03/07 11:40:22;;;;;;;3.17;2.60;;;;;;;;;;4969003;28;20222;-72
2022/03/07 11:42:49;;;;;;;3.97;3.00;;;;;;;;;;4963837;28;20665;-75
2022/03/07 11:45:18;;;;;;;3.92;2.67;;;;;;;;;;4962615;28;20209;-73
2022/03/07 11:47:46;;;;;;;4.15;2.92;;;;;;;;;;4965961;28;20213;-73
2022/03/07 11:50:18;;;;;;;6.90;2.67;;;;;;;;;;4965773;28;20210;-72
2022/03/07 11:52:45;;;;;;;2.58;2.35;;;;;;;;;;4965757;28;20303;-74
2022/03/07 11:55:14;;;;;;;2.95;2.38;;;;;;;;;;4967646;28;20232;-72
2022/03/07 11:57:42;;;;;;;3.60;2.80;;;;;;;;;;4961120;28;20198;-73
2022/03/07 12:00:14;;;;;;;2.65;2.45;;;;;;;;;;4963770;28;20213;-73
2022/03/07 12:02:41;;;;;;;2.75;2.17;;;;;;;;;;4969734;28;20193;-73
2022/03/07 12:05:19;;;;;;;4.43;2.90;;;;;;;;;;4968876;28;20208;-72
2022/03/07 12:07:48;;;;;;;3.35;3.03;;;;;;;;;;4966936;28;20197;-72
2022/03/07 12:10:15;;;;;;;3.85;2.28;;;;;;;;;;4963770;28;20209;-74
2022/03/07 12:12:42;;;;;;;4.72;2.80;;;;;;;;;;4968524;28;20209;-72
2022/03/07 12:15:10;;;;;;;5.22;2.90;;;;;;;;;;4967724;28;20197;-72
2022/03/07 12:17:37;;;;;;;4.82;2.65;;;;;;;;;;4966446;28;20208;-72
2022/03/07 12:20:04;;;;;;;4.05;2.20;;;;;;;;;;4968391;28;20217;-73
2022/03/07 12:22:32;;;;;;;9.38;3.83;;;;;;;;;;4960062;28;20325;-74
2022/03/07 12:25:01;;;;;;;3.15;2.72;;;;;;;;;;4968610;28;20280;-73
2022/03/07 12:27:28;;;;;;;2.85;2.00;;;;;;;;;;4968438;28;20561;-73
2022/03/07 12:29:55;;;;;;;2.55;2.35;;;;;;;;;;4962773;28;20210;-72
2022/03/07 12:32:22;;;;;;;2.80;2.60;;;;;;;;;;4963997;28;20220;-79
2022/03/07 12:34:51;;;;;;;2.78;2.53;;;;;;;;;;4967861;28;20202;-75
2022/03/07 12:37:20;;;;;;;2.60;2.40;;;;;;;;;;4967104;28;20209;-72
2022/03/07 12:39:48;;;;;;;3.67;2.40;;;;;;;;;;4970999;28;20221;-74
2022/03/07 12:42:17;;;;;;;3.83;2.42;;;;;;;;;;4972199;28;20197;-74
2022/03/07 12:44:44;;;;;;;3.70;3.30;;;;;;;;;;4970620;28;20213;-75
2022/03/07 12:47:12;;;;;;;5.60;2.90;;;;;;;;;;4967982;28;20672;-71
2022/03/07 12:49:39;;;;;;;2.50;2.30;;;;;;;;;;4969189;28;20217;-72
2022/03/07 12:52:08;;;;;;;3.80;2.60;;;;;;;;;;4968479;28;20210;-71
2022/03/07 12:54:36;;;;;;;3.03;2.83;;;;;;;;;;4967026;28;20219;-71
2022/03/07 12:57:04;;;;;;;2.92;2.60;;;;;;;;;;4968157;28;20201;-73
2022/03/07 12:59:34;;;;;;;7.10;3.22;;;;;;;;;;4971921;28;20554;-72
2022/03/07 13:02:03;;;;;;;6.10;2.60;;;;;;;;;;4966049;28;20561;-73
2022/03/07 13:04:31;;;;;;;4.15;2.67;;;;;;;;;;4971297;28;20587;-72
2022/03/07 13:06:58;;;;;;;2.58;2.38;;;;;;;;;;4964573;28;20202;-74
2022/03/07 13:09:29;;;;;;;3.17;2.55;;;;;;;;;;4970318;28;20221;-73
2022/03/07 13:11:56;;;;;;;3.28;2.60;;;;;;;;;;4971568;28;20205;-74
2022/03/07 13:14:24;;;;;;;3.30;2.80;;;;;;;;;;4971212;28;20294;-72
2022/03/07 13:16:53;;;;;;;3.88;2.55;;;;;;;;;;4968586;28;20209;-73
2022/03/07 13:19:21;;;;;;;3.28;2.60;;;;;;;;;;4968904;28;20236;-73
2022/03/07 13:21:49;;;;;;;6.78;2.38;;;;;;;;;;4969069;28;20197;-74
2022/03/07 13:24:17;;;;;;;2.63;2.42;;;;;;;;;;4968689;28;20593;-74
2022/03/07 13:26:44;;;;;;;3.30;3.00;;;;;;;;;;4970713;28;20260;-74
2022/03/07 13:29:14;;;;;;;2.90;2.60;;;;;;;;;;4971152;28;20202;-76
2022/03/07 13:31:41;;;;;;;2.88;2.35;;;;;;;;;;4965179;28;20656;-76
2022/03/07 13:34:10;;;;;;;5.28;2.60;;;;;;;;;;4970500;28;20208;-76
2022/03/07 13:36:41;;;;;;;4.45;2.47;;;;;;;;;;4973340;28;20239;-75
2022/03/07 13:39:17;;;;;;;2.80;2.60;;;;;;;;;;4970505;28;20217;-75
2022/03/07 13:41:48;;;;;;;2.70;2.40;;;;;;;;;;4970334;28;20207;-76
2022/03/07 13:44:15;;;;;;;2.97;2.78;;;;;;;;;;4970458;28;20205;-73
2022/03/07 13:46:52;;;;;;;5.25;2.50;;;;;;;;;;4972738;28;20209;-77
2022/03/07 13:49:20;;;;;;;3.40;2.80;;;;;;;;;;4958785;28;20205;-77
2022/03/07 13:51:47;;;;;;;2.40;2.00;;;;;;;;;;4976872;28;20606;-74
2022/03/07 13:54:14;;;;;;;3.50;2.55;;;;;;;;;;4965368;28;20198;-74
2022/03/07 13:56:41;;;;;;;3.65;2.70;;;;;;;;;;4974254;28;20204;-74
2022/03/07 13:59:12;;;;;;;2.70;2.40;;;;;;;;;;4971108;28;20229;-75
2022/03/07 14:01:40;;;;;;;6.18;2.47;;;;;;;;;;4974941;28;20198;-73
2022/03/07 14:04:14;;;;;;;3.55;2.80;;;;;;;;;;4969344;28;20205;-73
2022/03/07 14:06:44;;;;;;;4.15;2.08;;;;;;;;;;4965862;28;20217;-74
2022/03/07 14:09:12;;;;;;;2.20;1.83;;;;;;;;;;4961775;28;20677;-73
2022/03/07 14:11:39;;;;;;;3.45;2.55;;;;;;;;;;4966135;28;20213;-76
2022/03/07 14:14:16;;;;;;;3.22;2.88;;;;;;;;;;4967493;28;20569;-75
2022/03/07 14:16:43;;;;;;;2.63;1.88;;;;;;;;;;4966337;28;20695;-75
2022/03/07 14:19:11;;;;;;;4.95;2.30;;;;;;;;;;4958815;28;20305;-75
2022/03/07 14:21:38;;;;;;;4.40;2.63;;;;;;;;;;4966675;28;20200;-74
2022/03/07 14:24:07;;;;;;;2.53;1.65;;;;;;;;;;4973356;28;20244;-74
2022/03/07 14:26:35;;;;;;;2.88;1.90;;;;;;;;;;4965087;28;20210;-73
2022/03/07 14:29:04;;;;;;;2.40;2.00;;;;;;;;;;4970675;28;20284;-72
2022/03/07 14:31:31;;;;;;;2.28;2.08;;;;;;;;;;4969981;28;20269;-73
2022/03/07 14:33:58;;;;;;;2.55;2.15;;;;;;;;;;4972553;28;20193;-74
2022/03/07 14:36:25;;;;;;;4.32;2.83;;;;;;;;;;4972310;28;20672;-73
2022/03/07 14:38:52;;;;;;;2.33;1.88;;;;;;;;;;4972535;28;20216;-74
2022/03/07 14:41:21;;;;;;;2.03;1.83;;;;;;;;;;4970232;28;20290;-74
2022/03/07 14:43:48;;;;;;;2.95;2.70;;;;;;;;;;4965794;28;20213;-74
2022/03/07 14:46:15;;;;;;;2.20;1.90;;;;;;;;;;4971312;28;20205;-74